createdAt,value
2019-01-29T00:00:35.891Z,99138.91
2019-01-29T00:03:06.695Z,99145.28
2019-01-29T00:05:35.243Z,99146.58
2019-01-29T00:08:03.677Z,99152.05
2019-01-29T00:10:32.509Z,99149.96
2019-01-29T00:13:01.419Z,99151.69
2019-01-29T00:15:29.704Z,99151.69
2019-01-29T00:17:58.223Z,99145.74
2019-01-29T00:20:27.429Z,99145.74
2019-01-29T00:22:56.230Z,99145.33
2019-01-29T00:25:24.866Z,99145.33
2019-01-29T00:27:54.870Z,99149.54
2019-01-29T00:30:24.635Z,99149.54
2019-01-29T00:32:53.541Z,99150.91
2019-01-29T00:35:22.119Z,99160.12
2019-01-29T00:37:50.639Z,99153.40
2019-01-29T00:40:18.891Z,99153.40
2019-01-29T00:42:48.208Z,99146.07
2019-01-29T00:45:17.424Z,99157.95
2019-01-29T00:47:46.067Z,99152.41
2019-01-29T00:50:14.694Z,99159.56
2019-01-29T00:52:44.279Z,99160.75
2019-01-29T00:55:14.159Z,99160.75
2019-01-29T00:57:42.893Z,99157.85
2019-01-29T01:00:18.976Z,99163.80
2019-01-29T01:02:47.348Z,99163.80
2019-01-29T01:05:16.606Z,99167.08
2019-01-29T01:07:45.348Z,99167.84
2019-01-29T01:10:16.228Z,99173.02
2019-01-29T01:12:44.412Z,99173.02
2019-01-29T01:15:13.414Z,99177.20
2019-01-29T01:17:41.552Z,99179.37
2019-01-29T01:20:13.153Z,99172.95
2019-01-29T01:22:50.408Z,99172.95
2019-01-29T01:25:12.986Z,99189.85
2019-01-29T01:27:41.421Z,99189.85
2019-01-29T01:30:13.117Z,99186.92
2019-01-29T01:32:41.287Z,99186.92
2019-01-29T01:35:11.003Z,99187.09
2019-01-29T01:37:39.179Z,99189.53
2019-01-29T01:40:11.341Z,99189.53
2019-01-29T01:42:39.589Z,99184.89
2019-01-29T01:45:08.925Z,99184.89
2019-01-29T01:47:37.912Z,99194.18
2019-01-29T01:50:07.599Z,99193.78
2019-01-29T01:52:36.163Z,99193.78
2019-01-29T01:55:06.343Z,99192.20
2019-01-29T01:57:34.860Z,99192.20
2019-01-29T02:00:03.159Z,99191.70
2019-01-29T02:02:32.432Z,99200.76
2019-01-29T02:05:00.546Z,99197.31
2019-01-29T02:07:28.861Z,99197.31
2019-01-29T02:09:58.220Z,99200.84
2019-01-29T02:12:26.511Z,99205.92
2019-01-29T02:14:56.119Z,99205.14
2019-01-29T02:17:24.647Z,99205.14
2019-01-29T02:19:52.812Z,99214.16
2019-01-29T02:22:21.163Z,99214.16
2019-01-29T02:24:50.303Z,99208.49
2019-01-29T02:27:18.621Z,99212.47
2019-01-29T02:29:46.784Z,99210.23
2019-01-29T02:32:14.928Z,99217.01
2019-01-29T02:34:44.058Z,99217.01
2019-01-29T02:37:12.371Z,99216.47
2019-01-29T02:39:40.597Z,99217.80
2019-01-29T02:42:09.718Z,99221.14
2019-01-29T02:44:38.510Z,99226.67
2019-01-29T02:47:07.141Z,99233.33
2019-01-29T02:49:35.360Z,99233.33
2019-01-29T02:52:03.788Z,99233.23
2019-01-29T02:54:32.295Z,99234.47
2019-01-29T02:57:00.592Z,99237.81
2019-01-29T02:59:29.074Z,99234.61
2019-01-29T03:01:57.885Z,99234.61
2019-01-29T03:04:26.010Z,99238.43
2019-01-29T03:06:54.492Z,99247.72
2019-01-29T03:09:23.893Z,99246.42
2019-01-29T03:11:52.414Z,99244.69
2019-01-29T03:14:20.470Z,99255.81
2019-01-29T03:16:48.820Z,99255.81
2019-01-29T03:19:16.995Z,99255.99
2019-01-29T03:21:45.606Z,99250.73
2019-01-29T03:24:13.943Z,99250.70
2019-01-29T03:26:42.888Z,99250.70
2019-01-29T03:29:11.051Z,99245.64
2019-01-29T03:31:41.010Z,99242.63
2019-01-29T03:34:09.244Z,99247.81
2019-01-29T03:36:37.518Z,99246.98
2019-01-29T03:39:08.011Z,99255.06
2019-01-29T03:41:36.727Z,99255.19
2019-01-29T03:44:05.042Z,99254.72
2019-01-29T03:46:33.343Z,99253.91
2019-01-29T03:49:01.612Z,99252.95
2019-01-29T03:51:29.835Z,99252.95
2019-01-29T03:53:58.170Z,99258.22
2019-01-29T03:56:26.802Z,99258.22
2019-01-29T03:58:54.889Z,99248.48
2019-01-29T04:04:25.992Z,99242.21
2019-01-29T04:07:13.065Z,99243.88
2019-01-29T04:10:00.264Z,99251.00
2019-01-29T04:12:47.495Z,99252.74
2019-01-29T04:15:34.387Z,99252.74
2019-01-29T04:18:21.002Z,99256.18
2019-01-29T04:21:08.160Z,99256.18
2019-01-29T04:23:54.535Z,99259.53
2019-01-29T04:26:41.348Z,99262.20
2019-01-29T04:29:28.522Z,99262.84
2019-01-29T04:31:56.853Z,99262.84
2019-01-29T04:34:25.028Z,99264.03
2019-01-29T04:36:53.180Z,99264.03
2019-01-29T04:39:22.079Z,99275.56
2019-01-29T04:41:50.520Z,99276.88
2019-01-29T04:44:18.617Z,99275.59
2019-01-29T04:46:47.103Z,99273.48
2019-01-29T04:49:15.985Z,99266.16
2019-01-29T04:51:44.069Z,99266.16
2019-01-29T04:54:12.423Z,99280.65
2019-01-29T04:56:40.765Z,99271.67
2019-01-29T04:59:09.324Z,99276.91
2019-01-29T05:01:37.988Z,99271.39
2019-01-29T05:04:06.310Z,99271.39
2019-01-29T05:06:37.626Z,99280.38
2019-01-29T05:09:08.201Z,99280.38
2019-01-29T05:11:36.490Z,99280.38
2019-01-29T05:14:05.023Z,99273.13
2019-01-29T05:16:33.084Z,99264.72
2019-01-29T05:19:01.535Z,99264.72
2019-01-29T05:21:31.778Z,99271.39
2019-01-29T05:24:06.688Z,99271.01
2019-01-29T05:26:31.182Z,99278.69
2019-01-29T05:28:59.282Z,99279.91
2019-01-29T05:31:28.373Z,99279.91
2019-01-29T05:33:56.964Z,99262.56
2019-01-29T05:36:25.194Z,99276.95
2019-01-29T05:38:53.184Z,99279.10
2019-01-29T05:41:22.127Z,99279.08
2019-01-29T05:43:50.951Z,99274.43
2019-01-29T05:46:19.237Z,99276.52
2019-01-29T05:48:48.154Z,99287.16
2019-01-29T05:51:16.526Z,99287.16
2019-01-29T05:53:46.311Z,99291.92
2019-01-29T05:56:14.507Z,99291.92
2019-01-29T05:58:42.636Z,99286.38
2019-01-29T06:01:11.672Z,99286.27
2019-01-29T06:03:42.931Z,99293.00
2019-01-29T06:06:11.214Z,99293.00
2019-01-29T06:08:40.373Z,99288.31
2019-01-29T06:11:08.539Z,99287.06
2019-01-29T06:13:36.739Z,99297.13
2019-01-29T06:16:05.091Z,99294.23
2019-01-29T06:18:33.100Z,99292.77
2019-01-29T06:21:01.250Z,99289.91
2019-01-29T06:23:30.856Z,99284.80
2019-01-29T06:25:59.042Z,99284.75
2019-01-29T06:28:27.277Z,99284.00
2019-01-29T06:30:55.307Z,99285.37
2019-01-29T06:33:23.965Z,99290.83
2019-01-29T06:35:52.865Z,99285.14
2019-01-29T06:38:20.843Z,99285.14
2019-01-29T06:40:49.052Z,99289.84
2019-01-29T06:43:17.736Z,99294.02
2019-01-29T06:45:45.961Z,99294.81
2019-01-29T06:48:14.619Z,99299.20
2019-01-29T06:50:42.684Z,99302.06
2019-01-29T06:53:14.328Z,99303.00
2019-01-29T06:55:42.559Z,99301.26
2019-01-29T06:58:10.810Z,99301.26
2019-01-29T07:00:39.619Z,99314.75
2019-01-29T07:03:08.505Z,99314.75
2019-01-29T07:05:36.694Z,99315.14
2019-01-29T07:08:05.709Z,99308.39
2019-01-29T07:10:34.121Z,99315.12
2019-01-29T07:13:02.749Z,99315.12
2019-01-29T07:15:49.456Z,99313.50
2019-01-29T07:18:40.262Z,99317.79
2019-01-29T07:21:09.613Z,99317.79
2019-01-29T07:23:38.144Z,99319.89
2019-01-29T07:26:06.862Z,99319.89
2019-01-29T07:28:35.729Z,99323.06
2019-01-29T07:31:06.553Z,99323.06
2019-01-29T07:33:35.529Z,99326.80
2019-01-29T07:36:04.075Z,99326.07
2019-01-29T07:38:32.169Z,99326.07
2019-01-29T07:41:00.363Z,99327.77
2019-01-29T07:43:28.648Z,99331.45
2019-01-29T07:45:57.386Z,99333.39
2019-01-29T07:48:27.234Z,99336.36
2019-01-29T07:50:55.838Z,99333.34
2019-01-29T07:53:24.344Z,99339.31
2019-01-29T07:55:53.356Z,99340.17
2019-01-29T07:58:21.688Z,99340.17
2019-01-29T08:00:50.237Z,99346.12
2019-01-29T08:03:18.540Z,99341.16
2019-01-29T08:05:46.824Z,99348.88
2019-01-29T08:08:15.144Z,99348.88
2019-01-29T08:10:44.449Z,99339.67
2019-01-29T08:13:13.505Z,99333.48
2019-01-29T08:15:41.809Z,99333.48
2019-01-29T08:18:10.002Z,99342.09
2019-01-29T08:20:40.232Z,99333.59
2019-01-29T08:23:08.853Z,99333.89
2019-01-29T08:25:37.761Z,99357.70
2019-01-29T08:28:06.840Z,99341.17
2019-01-29T08:30:37.145Z,99341.17
2019-01-29T08:33:06.117Z,99340.11
2019-01-29T08:35:34.613Z,99340.11
2019-01-29T08:38:02.927Z,99338.91
2019-01-29T08:40:34.122Z,99342.55
2019-01-29T08:43:03.446Z,99342.55
2019-01-29T08:45:31.936Z,99339.70
2019-01-29T08:48:00.282Z,99343.32
2019-01-29T08:50:29.303Z,99346.37
2019-01-29T08:52:58.763Z,99330.98
2019-01-29T08:55:27.147Z,99330.98
2019-01-29T08:57:55.628Z,99340.41
2019-01-29T09:00:24.202Z,99339.50
2019-01-29T09:02:52.401Z,99337.33
2019-01-29T09:05:21.156Z,99334.87
2019-01-29T09:07:49.287Z,99340.80
2019-01-29T09:10:17.768Z,99336.22
2019-01-29T09:12:45.945Z,99334.11
2019-01-29T09:15:15.359Z,99332.81
2019-01-29T09:17:43.555Z,99334.09
2019-01-29T09:20:12.887Z,99331.04
2019-01-29T09:22:41.303Z,99331.05
2019-01-29T09:25:19.109Z,99327.11
2019-01-29T09:27:41.617Z,99318.30
2019-01-29T09:30:13.138Z,99320.95
2019-01-29T09:32:41.836Z,99314.56
2019-01-29T09:35:10.179Z,99310.48
2019-01-29T09:37:38.637Z,99314.27
2019-01-29T09:40:11.499Z,99310.42
2019-01-29T09:42:40.559Z,99310.03
2019-01-29T09:45:10.848Z,99306.35
2019-01-29T09:47:39.688Z,99307.74
2019-01-29T09:50:08.675Z,99300.89
2019-01-29T09:52:36.932Z,99304.12
2019-01-29T09:55:08.145Z,99307.64
2019-01-29T09:57:38.437Z,99304.33
2019-01-29T10:00:10.192Z,99304.52
2019-01-29T10:02:38.369Z,99300.73
2019-01-29T10:05:07.293Z,99300.73
2019-01-29T10:07:35.805Z,99291.56
2019-01-29T10:10:04.579Z,99299.22
2019-01-29T10:12:32.801Z,99284.70
2019-01-29T10:15:01.521Z,99283.05
2019-01-29T10:17:30.101Z,99279.23
2019-01-29T10:20:02.809Z,99276.17
2019-01-29T10:22:28.545Z,99275.30
2019-01-29T10:24:57.089Z,99268.11
2019-01-29T10:27:25.212Z,99269.41
2019-01-29T10:29:54.822Z,99260.59
2019-01-29T10:32:27.424Z,99260.59
2019-01-29T10:34:58.693Z,99260.23
2019-01-29T10:37:26.933Z,99262.00
2019-01-29T10:39:55.316Z,99256.14
2019-01-29T10:42:23.619Z,99250.58
2019-01-29T10:44:51.826Z,99250.28
2019-01-29T10:47:20.172Z,99246.04
2019-01-29T10:49:50.378Z,99249.91
2019-01-29T10:52:18.683Z,99244.49
2019-01-29T10:54:46.802Z,99239.77
2019-01-29T10:57:15.122Z,99236.31
2019-01-29T10:59:45.656Z,99237.47
2019-01-29T11:02:14.007Z,99230.19
2019-01-29T11:04:42.573Z,99226.38
2019-01-29T11:07:12.223Z,99223.37
2019-01-29T11:09:41.487Z,99217.51
2019-01-29T11:12:11.337Z,99221.45
2019-01-29T11:14:39.687Z,99213.00
2019-01-29T11:17:08.262Z,99212.16
2019-01-29T11:19:36.560Z,99206.09
2019-01-29T11:22:06.050Z,99197.28
2019-01-29T11:24:34.644Z,99204.59
2019-01-29T11:27:03.028Z,99206.70
2019-01-29T11:29:31.702Z,99199.83
2019-01-29T11:32:03.712Z,99198.16
2019-01-29T11:34:31.882Z,99188.34
2019-01-29T11:37:00.415Z,99193.44
2019-01-29T11:39:28.705Z,99189.61
2019-01-29T11:42:00.901Z,99185.41
2019-01-29T11:44:29.069Z,99185.83
2019-01-29T11:46:57.288Z,99179.48
2019-01-29T11:49:25.726Z,99181.20
2019-01-29T11:51:54.237Z,99182.06
2019-01-29T11:54:22.623Z,99182.38
2019-01-29T11:56:51.594Z,99176.89
2019-01-29T11:59:19.825Z,99176.47
2019-01-29T12:01:48.489Z,99181.19
2019-01-29T12:04:16.708Z,99178.23
2019-01-29T12:06:45.898Z,99178.64
2019-01-29T12:09:14.265Z,99166.30
2019-01-29T12:11:42.483Z,99173.53
2019-01-29T12:14:10.753Z,99169.23
2019-01-29T12:16:39.128Z,99165.82
2019-01-29T12:19:07.889Z,99163.72
2019-01-29T12:21:36.117Z,99161.59
2019-01-29T12:24:04.322Z,99161.59
2019-01-29T12:26:35.042Z,99155.19
2019-01-29T12:29:03.622Z,99145.39
2019-01-29T12:31:32.232Z,99143.67
2019-01-29T12:34:00.413Z,99136.02
2019-01-29T12:36:28.650Z,99133.02
2019-01-29T12:38:57.059Z,99139.84
2019-01-29T12:41:25.798Z,99137.30
2019-01-29T12:43:55.025Z,99136.00
2019-01-29T12:46:23.527Z,99133.02
2019-01-29T12:48:52.738Z,99131.75
2019-01-29T12:51:30.710Z,99127.92
2019-01-29T12:53:59.069Z,99116.84
2019-01-29T12:56:28.380Z,99127.48
2019-01-29T12:58:56.479Z,99117.67
2019-01-29T13:01:25.704Z,99114.70
2019-01-29T13:03:54.338Z,99111.30
2019-01-29T13:06:25.806Z,99111.69
2019-01-29T13:08:56.924Z,99101.88
2019-01-29T13:11:25.139Z,99100.22
2019-01-29T13:13:53.584Z,99104.90
2019-01-29T13:16:21.690Z,99103.63
2019-01-29T13:18:50.837Z,99098.52
2019-01-29T13:21:19.337Z,99095.54
2019-01-29T13:23:47.674Z,99087.84
2019-01-29T13:26:16.080Z,99080.59
2019-01-29T13:28:47.786Z,99088.27
2019-01-29T13:31:16.982Z,99080.20
2019-01-29T13:33:45.507Z,99077.22
2019-01-29T13:36:13.513Z,99078.48
2019-01-29T13:38:42.138Z,99073.78
2019-01-29T13:41:11.005Z,99074.22
2019-01-29T13:43:39.958Z,99079.28
2019-01-29T13:46:08.403Z,99076.23
2019-01-29T13:48:40.042Z,99078.37
2019-01-29T13:51:08.893Z,99072.05
2019-01-29T13:53:42.519Z,99072.05
2019-01-29T13:56:11.198Z,99069.52
2019-01-29T13:58:46.442Z,99063.98
2019-01-29T14:01:16.660Z,99057.17
2019-01-29T14:03:45.438Z,99056.33
2019-01-29T14:06:13.917Z,99055.49
2019-01-29T14:08:44.485Z,99049.10
2019-01-29T14:11:13.424Z,99047.38
2019-01-29T14:13:43.968Z,99040.99
2019-01-29T14:16:13.664Z,99043.98
2019-01-29T14:18:42.281Z,99042.69
2019-01-29T14:21:10.552Z,99036.72
2019-01-29T14:23:38.825Z,99039.28
2019-01-29T14:26:07.927Z,99038.81
2019-01-29T14:28:36.689Z,99032.03
2019-01-29T14:31:09.201Z,99034.52
2019-01-29T14:33:38.255Z,99030.75
2019-01-29T14:36:16.232Z,99023.08
2019-01-29T14:39:12.217Z,99025.65
2019-01-29T14:41:43.377Z,99016.28
2019-01-29T14:44:27.020Z,99017.97
2019-01-29T14:46:56.796Z,99013.59
2019-01-29T14:49:29.993Z,99010.48
2019-01-29T14:52:00.028Z,98994.42
2019-01-29T14:54:28.374Z,98999.80
2019-01-29T14:56:57.420Z,98995.76
2019-01-29T14:59:25.854Z,98993.08
2019-01-29T15:01:54.016Z,98982.73
2019-01-29T15:04:22.541Z,98987.61
2019-01-29T15:06:51.492Z,98984.23
2019-01-29T15:09:20.158Z,98977.48
2019-01-29T15:11:49.363Z,98973.17
2019-01-29T15:14:17.834Z,98971.52
2019-01-29T15:17:05.727Z,98963.89
2019-01-29T15:19:34.881Z,98962.20
2019-01-29T15:22:07.011Z,98961.78
2019-01-29T15:24:35.970Z,98968.59
2019-01-29T15:27:06.084Z,98966.06
2019-01-29T15:29:44.269Z,98965.62
2019-01-29T15:32:12.620Z,98961.78
2019-01-29T15:34:42.029Z,98955.39
2019-01-29T15:37:10.878Z,98956.27
2019-01-29T15:39:39.046Z,98955.82
2019-01-29T15:42:07.308Z,98954.53
2019-01-29T15:44:35.891Z,98951.55
2019-01-29T15:47:06.300Z,98948.59
2019-01-29T15:49:35.227Z,98950.70
2019-01-29T15:52:03.779Z,98941.74
2019-01-29T15:54:32.011Z,98939.61
2019-01-29T15:57:02.443Z,98933.20
2019-01-29T15:59:31.058Z,98930.66
2019-01-29T16:01:59.473Z,98927.27
2019-01-29T16:04:28.508Z,98925.09
2019-01-29T16:06:56.481Z,98919.97
2019-01-29T16:09:24.723Z,98922.52
2019-01-29T16:11:54.471Z,98922.52
2019-01-29T16:14:22.394Z,98922.10
2019-01-29T16:16:50.863Z,98920.78
2019-01-29T16:19:20.400Z,98919.05
2019-01-29T16:21:49.221Z,98919.05
2019-01-29T16:24:17.560Z,98916.52
2019-01-29T16:26:45.792Z,98910.99
2019-01-29T16:29:14.811Z,98910.99
2019-01-29T16:31:43.463Z,98917.36
2019-01-29T16:34:11.841Z,98903.69
2019-01-29T16:36:40.152Z,98903.69
2019-01-29T16:39:09.559Z,98908.81
2019-01-29T16:41:37.994Z,98905.81
2019-01-29T16:44:07.026Z,98902.41
2019-01-29T16:46:35.312Z,98896.04
2019-01-29T16:49:04.433Z,98894.75
2019-01-29T16:51:41.869Z,98894.70
2019-01-29T16:54:04.460Z,98894.70
2019-01-29T16:56:32.658Z,98891.71
2019-01-29T16:59:01.345Z,98884.47
2019-01-29T17:01:30.813Z,98884.43
2019-01-29T17:03:59.049Z,98886.54
2019-01-29T17:06:29.401Z,98885.69
2019-01-29T17:08:58.285Z,98886.52
2019-01-29T17:11:26.352Z,98882.69
2019-01-29T17:13:54.941Z,98876.31
2019-01-29T17:16:24.787Z,98875.86
2019-01-29T17:18:53.236Z,98875.06
2019-01-29T17:21:21.475Z,98872.95
2019-01-29T17:23:50.405Z,98869.52
2019-01-29T17:26:19.005Z,98869.09
2019-01-29T17:28:47.433Z,98865.28
2019-01-29T17:31:16.568Z,98863.98
2019-01-29T17:33:45.162Z,98864.80
2019-01-29T17:36:14.004Z,98858.00
2019-01-29T17:38:44.665Z,98854.99
2019-01-29T17:41:13.262Z,98861.78
2019-01-29T17:43:42.708Z,98857.09
2019-01-29T17:46:13.785Z,98859.99
2019-01-29T17:48:43.520Z,98848.50
2019-01-29T17:51:12.507Z,98847.66
2019-01-29T17:53:40.771Z,98846.76
2019-01-29T17:56:09.765Z,98843.38
2019-01-29T17:58:39.517Z,98840.78
2019-01-29T18:01:08.708Z,98836.52
2019-01-29T18:03:38.823Z,98836.48
2019-01-29T18:06:09.836Z,98832.25
2019-01-29T18:08:49.499Z,98830.14
2019-01-29T18:11:09.459Z,98824.57
2019-01-29T18:13:37.625Z,98826.31
2019-01-29T18:16:06.094Z,98828.86
2019-01-29T18:18:34.706Z,98821.61
2019-01-29T18:21:02.951Z,98813.52
2019-01-29T18:23:30.856Z,98815.62
2019-01-29T18:25:59.132Z,98824.98
2019-01-29T18:28:27.984Z,98812.23
2019-01-29T18:30:56.088Z,98808.42
2019-01-29T18:33:24.358Z,98808.42
2019-01-29T18:35:53.309Z,98807.10
2019-01-29T18:38:22.009Z,98814.77
2019-01-29T18:40:53.012Z,98807.95
2019-01-29T18:43:21.556Z,98806.25
2019-01-29T18:45:50.091Z,98794.80
2019-01-29T18:48:19.547Z,98799.03
2019-01-29T18:50:48.231Z,98794.80
2019-01-29T18:53:18.653Z,98793.09
2019-01-29T18:55:46.922Z,98792.20
2019-01-29T18:58:15.446Z,98789.61
2019-01-29T19:00:54.016Z,98775.66
2019-01-29T19:03:18.185Z,98776.50
2019-01-29T19:05:49.867Z,98778.67
2019-01-29T19:08:19.471Z,98779.11
2019-01-29T19:10:51.210Z,98779.11
2019-01-29T19:13:19.648Z,98772.36
2019-01-29T19:15:48.458Z,98779.22
2019-01-29T19:18:17.402Z,98772.86
2019-01-29T19:20:46.938Z,98772.86
2019-01-29T19:23:15.127Z,98772.45
2019-01-29T19:25:43.653Z,98769.05
2019-01-29T19:28:21.437Z,98771.17
2019-01-29T19:30:43.124Z,98772.88
2019-01-29T19:33:11.342Z,98763.13
2019-01-29T19:35:40.344Z,98768.66
2019-01-29T19:38:09.008Z,98769.06
2019-01-29T19:40:37.504Z,98760.59
2019-01-29T19:43:05.828Z,98754.19
2019-01-29T19:45:34.639Z,98760.98
2019-01-29T19:48:04.964Z,98758.45
2019-01-29T19:50:33.269Z,98760.59
2019-01-29T19:53:02.174Z,98754.60
2019-01-29T19:55:31.658Z,98749.07
2019-01-29T19:58:08.677Z,98743.92
2019-01-29T20:00:32.905Z,98743.92
2019-01-29T20:03:01.365Z,98742.23
2019-01-29T20:05:31.206Z,98748.11
2019-01-29T20:07:59.737Z,98736.59
2019-01-29T20:10:28.132Z,98735.34
2019-01-29T20:12:56.401Z,98735.34
2019-01-29T20:15:24.993Z,98725.16
2019-01-29T20:17:54.556Z,98730.27
2019-01-29T20:20:32.869Z,98723.04
2019-01-29T20:23:07.690Z,98718.78
2019-01-29T20:25:32.485Z,98717.47
2019-01-29T20:28:00.784Z,98720.00
2019-01-29T20:30:30.971Z,98705.65
2019-01-29T20:33:05.248Z,98707.81
2019-01-29T20:35:35.529Z,98708.25
2019-01-29T20:38:04.285Z,98708.25
2019-01-29T20:40:32.787Z,98697.23
2019-01-29T20:43:01.580Z,98696.88
2019-01-29T20:45:30.881Z,98696.88
2019-01-29T20:48:17.894Z,98695.63
2019-01-29T20:50:46.448Z,98684.14
2019-01-29T20:53:16.857Z,98684.14
2019-01-29T20:55:46.351Z,98687.55
2019-01-29T20:58:14.688Z,98679.08
2019-01-29T21:00:42.856Z,98679.08
2019-01-29T21:03:11.163Z,98683.30
2019-01-29T21:05:39.869Z,98682.47
2019-01-29T21:08:08.774Z,98680.37
2019-01-29T21:10:37.375Z,98679.50
2019-01-29T21:13:05.783Z,98670.09
2019-01-29T21:15:38.644Z,98675.59
2019-01-29T21:18:06.751Z,98666.62
2019-01-29T21:20:35.246Z,98666.62
2019-01-29T21:23:06.565Z,98671.75
2019-01-29T21:25:36.343Z,98671.75
2019-01-29T21:28:04.717Z,98661.55
2019-01-29T21:30:44.144Z,98662.76
2019-01-29T21:33:13.222Z,98662.31
2019-01-29T21:35:41.657Z,98651.65
2019-01-29T21:38:10.228Z,98651.65
2019-01-29T21:40:41.138Z,98645.26
2019-01-29T21:43:09.310Z,98639.73
2019-01-29T21:45:37.741Z,98639.73
2019-01-29T21:48:06.566Z,98640.95
2019-01-29T21:50:36.293Z,98633.80
2019-01-29T21:53:05.341Z,98632.91
2019-01-29T21:55:33.669Z,98635.05
2019-01-29T21:58:02.220Z,98635.05
2019-01-29T22:00:36.617Z,98633.32
2019-01-29T22:03:05.668Z,98627.38
2019-01-29T22:05:34.797Z,98625.17
2019-01-29T22:08:03.768Z,98628.15
2019-01-29T22:10:32.244Z,98627.31
2019-01-29T22:13:00.513Z,98627.31
2019-01-29T22:15:29.443Z,98625.58
2019-01-29T22:17:58.091Z,98623.89
2019-01-29T22:20:26.403Z,98612.85
2019-01-29T22:22:54.582Z,98593.38
2019-01-29T22:25:23.715Z,98595.94
2019-01-29T22:27:53.728Z,98595.94
2019-01-29T22:30:29.015Z,98598.87
2019-01-29T22:32:57.256Z,98598.87
2019-01-29T22:35:26.549Z,98588.25
2019-01-29T22:37:55.176Z,98582.32
2019-01-29T22:40:24.365Z,98573.00
2019-01-29T22:42:53.909Z,98577.19
2019-01-29T22:45:22.573Z,98577.19
2019-01-29T22:47:51.635Z,98576.39
2019-01-29T22:50:22.515Z,98575.08
2019-01-29T22:52:50.786Z,98569.19
2019-01-29T22:55:19.925Z,98563.23
2019-01-29T22:57:48.934Z,98562.00
2019-01-29T23:00:42.830Z,98562.00
2019-01-29T23:03:12.255Z,98553.11
2019-01-29T23:05:41.327Z,98553.11
2019-01-29T23:08:09.833Z,98542.14
2019-01-29T23:10:38.709Z,98542.14
2019-01-29T23:13:07.389Z,98535.81
2019-01-29T23:18:31.685Z,98531.09
2019-01-29T23:21:02.722Z,98531.09
2019-01-29T23:23:31.246Z,98527.30
2019-01-29T23:26:00.586Z,98519.66
2019-01-29T23:28:28.805Z,98519.66
2019-01-29T23:30:57.618Z,98516.27
2019-01-29T23:33:25.692Z,98507.80
2019-01-29T23:35:54.935Z,98507.80
2019-01-29T23:38:27.451Z,98505.25
2019-01-29T23:40:55.775Z,98502.28
2019-01-29T23:43:24.016Z,98499.73
2019-01-29T23:45:52.300Z,98485.73
2019-01-29T23:48:22.277Z,98485.73
2019-01-29T23:50:51.594Z,98477.33
2019-01-29T23:53:20.277Z,98477.33
2019-01-29T23:55:48.965Z,98471.36
2019-01-29T23:58:19.085Z,98471.36
